createdAt,value
2018-11-06T00:00:00.290Z,11.88
2018-11-06T00:01:00.265Z,11.88
2018-11-06T00:02:00.244Z,11.90
2018-11-06T00:03:00.215Z,11.86
2018-11-06T00:04:00.186Z,11.80
2018-11-06T00:05:00.163Z,11.91
2018-11-06T00:06:00.135Z,11.87
2018-11-06T00:07:00.105Z,11.84
2018-11-06T00:08:00.079Z,11.86
2018-11-06T00:09:00.074Z,11.77
2018-11-06T00:10:00.026Z,11.77
2018-11-06T00:11:00.011Z,11.73
2018-11-06T00:11:59.977Z,11.68
2018-11-06T00:12:59.940Z,11.75
2018-11-06T00:13:59.919Z,11.72
2018-11-06T00:14:59.892Z,11.73
2018-11-06T00:15:59.865Z,11.68
2018-11-06T00:16:59.837Z,11.63
2018-11-06T00:17:59.809Z,11.73
2018-11-06T00:18:59.782Z,11.63
2018-11-06T00:19:59.754Z,11.66
2018-11-06T00:20:59.737Z,11.63
2018-11-06T00:21:59.707Z,11.57
2018-11-06T00:22:59.676Z,11.63
2018-11-06T00:23:59.654Z,11.57
2018-11-06T00:24:59.624Z,11.55
2018-11-06T00:25:59.601Z,11.60
2018-11-06T00:26:59.573Z,11.60
2018-11-06T00:27:59.545Z,11.60
2018-11-06T00:28:59.515Z,11.54
2018-11-06T00:29:59.492Z,11.55
2018-11-06T00:30:59.463Z,11.62
2018-11-06T00:31:59.439Z,11.57
2018-11-06T00:32:59.408Z,11.51
2018-11-06T00:33:59.392Z,11.50
2018-11-06T00:34:59.364Z,11.60
2018-11-06T00:35:59.327Z,11.47
2018-11-06T00:36:59.298Z,11.50
2018-11-06T00:37:59.272Z,11.51
2018-11-06T00:38:59.251Z,11.51
2018-11-06T00:39:59.219Z,11.44
2018-11-06T00:40:59.197Z,11.44
2018-11-06T00:41:59.171Z,11.44
2018-11-06T00:42:59.139Z,11.44
2018-11-06T00:43:59.118Z,11.37
2018-11-06T00:44:59.084Z,11.44
2018-11-06T00:45:59.064Z,11.36
2018-11-06T00:46:59.031Z,11.35
2018-11-06T00:47:59.006Z,11.47
2018-11-06T00:48:58.976Z,11.43
2018-11-06T00:49:58.955Z,11.32
2018-11-06T00:50:58.930Z,11.41
2018-11-06T00:51:58.896Z,11.44
2018-11-06T00:52:58.874Z,11.44
2018-11-06T00:53:58.848Z,11.48
2018-11-06T00:54:58.813Z,11.32
2018-11-06T00:55:58.794Z,11.36
2018-11-06T00:56:58.762Z,11.22
2018-11-06T00:57:58.731Z,11.33
2018-11-06T00:58:58.715Z,11.25
2018-11-06T00:59:58.680Z,11.23
2018-11-06T01:00:58.660Z,11.25
2018-11-06T01:01:58.624Z,11.25
2018-11-06T01:02:58.608Z,11.26
2018-11-06T01:03:58.577Z,11.22
2018-11-06T01:04:58.554Z,11.22
2018-11-06T01:05:58.522Z,11.23
2018-11-06T01:06:58.490Z,11.23
2018-11-06T01:07:58.471Z,11.25
2018-11-06T01:08:58.437Z,11.22
2018-11-06T01:09:58.414Z,11.23
2018-11-06T01:10:58.385Z,11.18
2018-11-06T01:11:58.372Z,11.17
2018-11-06T01:12:58.365Z,11.14
2018-11-06T01:13:58.309Z,11.15
2018-11-06T01:14:58.281Z,11.12
2018-11-06T01:15:58.256Z,11.25
2018-11-06T01:16:58.220Z,11.05
2018-11-06T01:17:58.197Z,11.18
2018-11-06T01:18:58.174Z,11.08
2018-11-06T01:19:58.139Z,11.08
2018-11-06T01:20:58.117Z,11.11
2018-11-06T01:21:58.085Z,11.10
2018-11-06T01:22:58.061Z,11.05
2018-11-06T01:23:58.037Z,11.10
2018-11-06T01:24:58.012Z,11.07
2018-11-06T01:25:57.986Z,11.05
2018-11-06T01:26:57.952Z,11.08
2018-11-06T01:27:57.925Z,11.04
2018-11-06T01:28:57.901Z,11.08
2018-11-06T01:29:57.869Z,11.05
2018-11-06T01:30:57.862Z,11.02
2018-11-06T01:31:57.823Z,11.04
2018-11-06T01:32:57.793Z,11.04
2018-11-06T01:33:57.768Z,11.17
2018-11-06T01:34:57.747Z,11.07
2018-11-06T01:35:57.708Z,11.12
2018-11-06T01:36:57.689Z,11.15
2018-11-06T01:37:57.657Z,11.15
2018-11-06T01:38:57.633Z,11.12
2018-11-06T01:39:57.611Z,11.11
2018-11-06T01:40:57.578Z,11.17
2018-11-06T01:41:57.546Z,11.19
2018-11-06T01:42:57.527Z,11.15
2018-11-06T01:43:57.493Z,11.22
2018-11-06T01:44:57.479Z,11.23
2018-11-06T01:45:57.440Z,11.15
2018-11-06T01:46:57.416Z,11.14
2018-11-06T01:47:57.389Z,11.07
2018-11-06T01:48:57.377Z,11.07
2018-11-06T01:49:57.331Z,11.15
2018-11-06T01:50:57.311Z,11.23
2018-11-06T01:51:57.281Z,11.18
2018-11-06T01:52:57.254Z,11.07
2018-11-06T01:53:57.222Z,11.08
2018-11-06T01:54:57.197Z,11.14
2018-11-06T01:55:57.174Z,11.08
2018-11-06T01:56:57.144Z,11.04
2018-11-06T01:57:57.120Z,10.97
2018-11-06T01:58:57.092Z,11.04
2018-11-06T01:59:57.065Z,10.96
2018-11-06T02:00:57.042Z,10.94
2018-11-06T02:01:57.005Z,11.00
2018-11-06T02:02:56.988Z,10.97
2018-11-06T02:03:56.952Z,10.89
2018-11-06T02:04:56.938Z,10.92
2018-11-06T02:05:56.903Z,10.97
2018-11-06T02:06:56.873Z,10.97
2018-11-06T02:07:56.851Z,10.86
2018-11-06T02:08:56.818Z,10.92
2018-11-06T02:09:56.804Z,10.90
2018-11-06T02:10:56.769Z,10.92
2018-11-06T02:11:56.738Z,10.93
2018-11-06T02:12:56.714Z,10.90
2018-11-06T02:13:56.684Z,10.89
2018-11-06T02:14:56.662Z,10.87
2018-11-06T02:15:56.628Z,10.86
2018-11-06T02:16:56.609Z,10.92
2018-11-06T02:17:56.581Z,10.87
2018-11-06T02:18:56.550Z,10.82
2018-11-06T02:19:56.528Z,10.89
2018-11-06T02:20:56.493Z,10.84
2018-11-06T02:21:56.475Z,10.79
2018-11-06T02:22:56.441Z,10.75
2018-11-06T02:23:56.414Z,10.76
2018-11-06T02:24:56.388Z,10.78
2018-11-06T02:25:56.357Z,10.79
2018-11-06T02:26:56.338Z,10.78
2018-11-06T02:27:59.045Z,10.72
2018-11-06T02:28:56.279Z,10.79
2018-11-06T02:29:56.251Z,10.78
2018-11-06T02:30:56.229Z,10.75
2018-11-06T02:31:56.197Z,10.75
2018-11-06T02:32:56.167Z,10.79
2018-11-06T02:33:56.147Z,10.79
2018-11-06T02:34:56.130Z,10.72
2018-11-06T02:35:56.092Z,10.81
2018-11-06T02:36:56.062Z,10.71
2018-11-06T02:37:56.033Z,10.75
2018-11-06T02:38:56.015Z,10.71
2018-11-06T02:39:55.987Z,10.74
2018-11-06T02:40:55.953Z,10.76
2018-11-06T02:41:55.932Z,10.69
2018-11-06T02:42:55.900Z,10.76
2018-11-06T02:43:55.872Z,10.64
2018-11-06T02:44:55.848Z,10.68
2018-11-06T02:45:55.819Z,10.64
2018-11-06T02:46:55.794Z,10.64
2018-11-06T02:47:55.767Z,10.69
2018-11-06T02:48:55.747Z,10.71
2018-11-06T02:49:55.711Z,10.74
2018-11-06T02:50:55.687Z,10.71
2018-11-06T02:51:55.655Z,10.68
2018-11-06T02:52:55.631Z,10.74
2018-11-06T02:53:55.608Z,10.59
2018-11-06T02:54:55.579Z,10.61
2018-11-06T02:55:55.609Z,10.59
2018-11-06T02:56:55.519Z,10.61
2018-11-06T02:57:55.497Z,10.63
2018-11-06T02:58:55.466Z,10.60
2018-11-06T02:59:55.438Z,10.60
2018-11-06T03:00:55.418Z,10.60
2018-11-06T03:01:55.384Z,10.67
2018-11-06T03:02:55.355Z,10.61
2018-11-06T03:03:55.337Z,10.63
2018-11-06T03:04:55.310Z,10.68
2018-11-06T03:05:55.274Z,10.60
2018-11-06T03:06:55.256Z,10.49
2018-11-06T03:07:55.224Z,10.57
2018-11-06T03:08:55.201Z,10.56
2018-11-06T03:09:55.169Z,10.57
2018-11-06T03:10:55.149Z,10.54
2018-11-06T03:11:55.117Z,10.60
2018-11-06T03:12:55.088Z,10.59
2018-11-06T03:13:55.066Z,10.49
2018-11-06T03:14:55.032Z,10.56
2018-11-06T03:15:55.009Z,10.57
2018-11-06T03:16:55.071Z,10.46
2018-11-06T03:17:54.953Z,10.44
2018-11-06T03:18:54.927Z,10.51
2018-11-06T03:19:54.901Z,10.51
2018-11-06T03:20:54.876Z,10.48
2018-11-06T03:21:54.843Z,10.41
2018-11-06T03:22:54.814Z,10.42
2018-11-06T03:23:54.789Z,10.48
2018-11-06T03:24:54.770Z,10.46
2018-11-06T03:25:54.739Z,10.54
2018-11-06T03:26:54.769Z,10.53
2018-11-06T03:27:54.687Z,10.48
2018-11-06T03:28:54.650Z,10.54
2018-11-06T03:29:54.623Z,10.51
2018-11-06T03:30:54.606Z,10.46
2018-11-06T03:31:54.581Z,10.48
2018-11-06T03:32:54.549Z,10.54
2018-11-06T03:33:54.517Z,10.51
2018-11-06T03:34:54.494Z,10.51
2018-11-06T03:35:54.468Z,10.54
2018-11-06T03:36:54.434Z,10.57
2018-11-06T03:37:54.411Z,10.61
2018-11-06T03:38:54.388Z,10.68
2018-11-06T03:39:54.357Z,10.59
2018-11-06T03:40:54.327Z,10.71
2018-11-06T03:41:54.299Z,10.60
2018-11-06T03:42:54.283Z,10.67
2018-11-06T03:43:54.249Z,10.63
2018-11-06T03:44:54.225Z,10.78
2018-11-06T03:45:54.198Z,10.76
2018-11-06T03:46:54.162Z,10.67
2018-11-06T03:47:54.145Z,10.68
2018-11-06T03:48:54.108Z,10.72
2018-11-06T03:49:54.091Z,10.74
2018-11-06T03:50:54.061Z,10.75
2018-11-06T03:51:54.035Z,10.68
2018-11-06T03:52:54.012Z,10.64
2018-11-06T03:53:53.972Z,10.74
2018-11-06T03:54:53.955Z,10.71
2018-11-06T03:55:53.919Z,10.72
2018-11-06T03:56:53.900Z,10.67
2018-11-06T03:57:53.869Z,10.69
2018-11-06T03:58:53.845Z,10.67
2018-11-06T03:59:53.817Z,10.69
2018-11-06T04:00:53.786Z,10.81
2018-11-06T04:01:53.758Z,10.76
2018-11-06T04:02:53.734Z,10.75
2018-11-06T04:03:53.707Z,10.79
2018-11-06T04:04:53.683Z,10.93
2018-11-06T04:05:53.654Z,10.89
2018-11-06T04:06:53.633Z,10.87
2018-11-06T04:07:53.601Z,10.93
2018-11-06T04:08:53.574Z,10.97
2018-11-06T04:09:53.544Z,10.96
2018-11-06T04:10:53.519Z,10.99
2018-11-06T04:11:53.488Z,11.04
2018-11-06T04:12:53.465Z,11.07
2018-11-06T04:13:53.441Z,11.05
2018-11-06T04:14:53.406Z,11.15
2018-11-06T04:15:53.385Z,11.10
2018-11-06T04:16:53.350Z,11.07
2018-11-06T04:17:53.379Z,11.17
2018-11-06T04:18:53.304Z,11.12
2018-11-06T04:19:53.272Z,11.07
2018-11-06T04:20:53.252Z,11.12
2018-11-06T04:21:53.223Z,11.10
2018-11-06T04:22:53.201Z,11.11
2018-11-06T04:23:53.163Z,11.22
2018-11-06T04:24:53.141Z,11.08
2018-11-06T04:25:53.107Z,11.19
2018-11-06T04:26:53.090Z,11.19
2018-11-06T04:27:53.071Z,11.30
2018-11-06T04:28:53.032Z,11.29
2018-11-06T04:29:53.014Z,11.26
2018-11-06T04:30:52.979Z,11.19
2018-11-06T04:31:52.945Z,11.30
2018-11-06T04:32:52.933Z,11.40
2018-11-06T04:33:52.894Z,11.41
2018-11-06T04:34:52.870Z,11.44
2018-11-06T04:35:52.846Z,11.48
2018-11-06T04:36:52.813Z,11.52
2018-11-06T04:37:52.791Z,11.50
2018-11-06T04:38:52.762Z,11.52
2018-11-06T04:39:52.739Z,11.54
2018-11-06T04:40:52.706Z,11.59
2018-11-06T04:41:52.679Z,11.52
2018-11-06T04:42:52.656Z,11.57
2018-11-06T04:43:52.626Z,11.62
2018-11-06T04:44:52.600Z,11.57
2018-11-06T04:45:52.579Z,11.55
2018-11-06T04:46:52.542Z,11.57
2018-11-06T04:47:52.538Z,11.57
2018-11-06T04:48:52.492Z,11.54
2018-11-06T04:49:52.771Z,11.59
2018-11-06T04:50:52.444Z,11.55
2018-11-06T04:51:52.408Z,11.55
2018-11-06T04:52:52.393Z,11.45
2018-11-06T04:53:52.362Z,11.47
2018-11-06T04:54:52.332Z,11.51
2018-11-06T04:55:52.303Z,11.48
2018-11-06T04:56:52.278Z,11.54
2018-11-06T04:57:52.251Z,11.50
2018-11-06T04:58:52.228Z,11.57
2018-11-06T04:59:52.194Z,11.43
2018-11-06T05:00:52.181Z,11.60
2018-11-06T05:01:52.156Z,11.51
2018-11-06T05:02:52.120Z,11.52
2018-11-06T05:03:52.086Z,11.57
2018-11-06T05:04:52.067Z,11.52
2018-11-06T05:05:52.040Z,11.48
2018-11-06T05:06:52.083Z,11.55
2018-11-06T05:07:51.985Z,11.54
2018-11-06T05:08:51.950Z,11.52
2018-11-06T05:09:51.929Z,11.52
2018-11-06T05:10:51.907Z,11.47
2018-11-06T05:11:51.875Z,11.52
2018-11-06T05:12:51.853Z,11.57
2018-11-06T05:13:51.868Z,11.60
2018-11-06T05:14:51.796Z,11.59
2018-11-06T05:15:51.765Z,11.55
2018-11-06T05:16:51.739Z,11.60
2018-11-06T05:17:51.716Z,11.57
2018-11-06T05:18:51.745Z,11.59
2018-11-06T05:19:51.683Z,11.60
2018-11-06T05:20:51.630Z,11.54
2018-11-06T05:21:51.604Z,11.60
2018-11-06T05:22:51.582Z,11.62
2018-11-06T05:23:51.553Z,11.57
2018-11-06T05:24:51.527Z,11.50
2018-11-06T05:25:51.500Z,11.52
2018-11-06T05:26:51.465Z,11.51
2018-11-06T05:27:51.443Z,11.55
2018-11-06T05:28:51.417Z,11.57
2018-11-06T05:29:51.387Z,11.50
2018-11-06T05:30:51.370Z,11.54
2018-11-06T05:31:51.342Z,11.52
2018-11-06T05:32:51.336Z,11.50
2018-11-06T05:33:51.278Z,11.45
2018-11-06T05:34:51.311Z,11.60
2018-11-06T05:35:51.229Z,11.55
2018-11-06T05:36:51.205Z,11.47
2018-11-06T05:37:51.178Z,11.52
2018-11-06T05:38:51.206Z,11.55
2018-11-06T05:39:51.120Z,11.50
2018-11-06T05:40:51.123Z,11.62
2018-11-06T05:41:51.067Z,11.57
2018-11-06T05:42:51.041Z,11.62
2018-11-06T05:43:51.088Z,11.62
2018-11-06T05:44:50.983Z,11.63
2018-11-06T05:45:50.957Z,11.60
2018-11-06T05:46:50.945Z,11.63
2018-11-06T05:47:50.902Z,11.68
2018-11-06T05:48:50.880Z,11.73
2018-11-06T05:49:50.855Z,11.73
2018-11-06T05:50:50.819Z,11.73
2018-11-06T05:51:50.795Z,11.77
2018-11-06T05:52:50.771Z,11.70
2018-11-06T05:53:50.741Z,11.69
2018-11-06T05:54:50.722Z,11.65
2018-11-06T05:55:50.692Z,11.70
2018-11-06T05:56:50.661Z,11.59
2018-11-06T05:57:50.640Z,11.59
2018-11-06T05:58:50.610Z,11.59
2018-11-06T05:59:50.593Z,11.48
2018-11-06T06:00:50.557Z,11.57
2018-11-06T06:01:50.531Z,11.52
2018-11-06T06:02:50.503Z,11.51
2018-11-06T06:03:50.472Z,11.45
2018-11-06T06:04:50.452Z,11.51
2018-11-06T06:05:50.455Z,11.47
2018-11-06T06:06:50.393Z,11.47
2018-11-06T06:07:50.372Z,11.41
2018-11-06T06:08:50.341Z,11.37
2018-11-06T06:09:50.312Z,11.41
2018-11-06T06:10:50.314Z,11.32
2018-11-06T06:11:50.259Z,11.47
2018-11-06T06:12:50.234Z,11.29
2018-11-06T06:13:50.204Z,11.30
2018-11-06T06:14:50.179Z,11.35
2018-11-06T06:15:50.148Z,11.37
2018-11-06T06:16:50.195Z,11.35
2018-11-06T06:17:50.098Z,11.32
2018-11-06T06:18:50.072Z,11.35
2018-11-06T06:19:50.052Z,11.44
2018-11-06T06:20:50.012Z,11.36
2018-11-06T06:21:49.990Z,11.33
2018-11-06T06:22:49.971Z,11.40
2018-11-06T06:23:49.936Z,11.32
2018-11-06T06:24:49.911Z,11.32
2018-11-06T06:25:49.885Z,11.35
2018-11-06T06:26:49.854Z,11.35
2018-11-06T06:27:49.831Z,11.40
2018-11-06T06:28:49.801Z,11.33
2018-11-06T06:29:49.774Z,11.36
2018-11-06T06:30:49.752Z,11.33
2018-11-06T06:31:49.726Z,11.37
2018-11-06T06:32:49.698Z,11.41
2018-11-06T06:33:49.668Z,11.48
2018-11-06T06:34:49.653Z,11.45
2018-11-06T06:35:49.611Z,11.43
2018-11-06T06:36:49.595Z,11.50
2018-11-06T06:37:49.558Z,11.54
2018-11-06T06:38:49.668Z,11.60
2018-11-06T06:39:49.524Z,11.47
2018-11-06T06:40:49.506Z,11.51
2018-11-06T06:41:49.455Z,11.51
2018-11-06T06:42:49.421Z,11.57
2018-11-06T06:43:49.396Z,11.55
2018-11-06T06:44:49.372Z,11.52
2018-11-06T06:45:49.342Z,11.59
2018-11-06T06:46:49.323Z,11.59
2018-11-06T06:47:49.292Z,11.59
2018-11-06T06:48:49.267Z,11.60
2018-11-06T06:49:49.241Z,11.60
2018-11-06T06:50:49.210Z,11.57
2018-11-06T06:51:49.182Z,11.62
2018-11-06T06:52:49.185Z,11.62
2018-11-06T06:53:49.154Z,11.54
2018-11-06T06:54:49.113Z,11.59
2018-11-06T06:55:49.079Z,11.60
2018-11-06T06:56:49.043Z,11.52
2018-11-06T06:57:49.024Z,11.55
2018-11-06T06:58:48.992Z,11.57
2018-11-06T06:59:48.968Z,11.55
2018-11-06T07:00:48.971Z,11.57
2018-11-06T07:01:48.919Z,11.62
2018-11-06T07:02:48.889Z,11.73
2018-11-06T07:03:48.859Z,11.65
2018-11-06T07:04:48.833Z,11.73
2018-11-06T07:05:48.807Z,11.84
2018-11-06T07:06:48.786Z,11.73
2018-11-06T07:07:48.747Z,11.75
2018-11-06T07:08:48.724Z,11.77
2018-11-06T07:09:48.696Z,11.81
2018-11-06T07:10:48.676Z,11.86
2018-11-06T07:11:48.646Z,11.91
2018-11-06T07:12:48.672Z,11.95
2018-11-06T07:13:48.597Z,11.80
2018-11-06T07:14:48.561Z,11.88
2018-11-06T07:15:48.542Z,11.91
2018-11-06T07:16:48.505Z,11.97
2018-11-06T07:17:48.481Z,11.95
2018-11-06T07:18:48.593Z,11.90
2018-11-06T07:19:48.429Z,11.97
2018-11-06T07:20:48.403Z,11.99
2018-11-06T07:21:48.373Z,12.00
2018-11-06T07:22:48.350Z,12.00
2018-11-06T07:23:48.328Z,11.95
2018-11-06T07:24:48.291Z,11.99
2018-11-06T07:25:48.267Z,11.94
2018-11-06T07:26:48.243Z,11.97
2018-11-06T07:27:48.224Z,11.88
2018-11-06T07:28:48.262Z,11.99
2018-11-06T07:29:48.166Z,11.91
2018-11-06T07:30:48.133Z,11.95
2018-11-06T07:31:48.107Z,11.88
2018-11-06T07:32:48.085Z,11.88
2018-11-06T07:33:48.053Z,11.80
2018-11-06T07:34:48.183Z,11.78
2018-11-06T07:35:48.183Z,11.95
2018-11-06T07:36:47.979Z,11.80
2018-11-06T07:37:47.950Z,11.80
2018-11-06T07:38:47.925Z,11.83
2018-11-06T07:39:47.894Z,11.75
2018-11-06T07:40:47.908Z,11.78
2018-11-06T07:41:47.841Z,11.78
2018-11-06T07:42:47.813Z,11.80
2018-11-06T07:43:47.789Z,11.78
2018-11-06T07:44:47.763Z,11.83
2018-11-06T07:45:47.732Z,11.86
2018-11-06T07:46:47.707Z,11.84
2018-11-06T07:47:47.685Z,11.88
2018-11-06T07:48:47.647Z,11.86
2018-11-06T07:49:47.659Z,11.95
2018-11-06T07:50:47.604Z,11.78
2018-11-06T07:51:47.573Z,11.88
2018-11-06T07:52:47.548Z,11.95
2018-11-06T07:53:47.521Z,11.99
2018-11-06T07:54:47.494Z,11.95
2018-11-06T07:55:47.559Z,11.97
2018-11-06T07:56:47.438Z,11.99
2018-11-06T07:57:47.409Z,11.99
2018-11-06T07:58:47.387Z,12.04
2018-11-06T07:59:47.364Z,12.03
2018-11-06T08:00:47.328Z,12.12
2018-11-06T08:01:47.307Z,12.03
2018-11-06T08:02:47.276Z,12.15
2018-11-06T08:03:47.249Z,12.12
2018-11-06T08:04:47.230Z,12.17
2018-11-06T08:05:47.197Z,12.18
2018-11-06T08:06:47.179Z,12.25
2018-11-06T08:07:47.146Z,12.25
2018-11-06T08:08:47.114Z,12.32
2018-11-06T08:09:47.105Z,12.28
2018-11-06T08:10:47.062Z,12.40
2018-11-06T08:11:47.036Z,12.42
2018-11-06T08:12:47.011Z,12.47
2018-11-06T08:13:46.995Z,12.46
2018-11-06T08:14:47.028Z,12.55
2018-11-06T08:15:46.928Z,12.49
2018-11-06T08:16:46.904Z,12.58
2018-11-06T08:17:46.882Z,12.67
2018-11-06T08:18:46.849Z,12.68
2018-11-06T08:19:46.825Z,12.60
2018-11-06T08:20:46.880Z,12.67
2018-11-06T08:21:46.777Z,12.73
2018-11-06T08:22:46.739Z,12.80
2018-11-06T08:23:46.740Z,12.86
2018-11-06T08:24:46.695Z,12.87
2018-11-06T08:25:46.664Z,12.86
2018-11-06T08:26:46.643Z,12.93
2018-11-06T08:27:46.675Z,13.03
2018-11-06T08:28:46.583Z,13.01
2018-11-06T08:29:46.553Z,13.01
2018-11-06T08:30:46.712Z,13.01
2018-11-06T08:31:46.886Z,13.16
2018-11-06T08:32:46.784Z,13.13
2018-11-06T08:33:46.462Z,13.20
2018-11-06T08:34:46.420Z,13.13
2018-11-06T08:35:46.396Z,13.19
2018-11-06T08:36:46.400Z,13.19
2018-11-06T08:37:46.342Z,13.20
2018-11-06T08:38:46.326Z,13.28
2018-11-06T08:39:46.292Z,13.23
2018-11-06T08:40:46.268Z,13.37
2018-11-06T08:41:46.242Z,13.44
2018-11-06T08:42:46.213Z,13.35
2018-11-06T08:43:46.195Z,13.44
2018-11-06T08:44:46.155Z,13.42
2018-11-06T08:45:46.131Z,13.39
2018-11-06T08:46:46.111Z,13.37
2018-11-06T08:47:46.085Z,13.39
2018-11-06T08:48:46.049Z,13.41
2018-11-06T08:49:46.024Z,13.44
2018-11-06T08:50:46.007Z,13.46
2018-11-06T08:51:45.978Z,13.47
2018-11-06T08:52:45.946Z,13.42
2018-11-06T08:53:45.927Z,13.39
2018-11-06T08:54:46.012Z,13.47
2018-11-06T08:55:45.868Z,13.49
2018-11-06T08:56:45.847Z,13.47
2018-11-06T08:57:45.813Z,13.47
2018-11-06T08:58:45.794Z,13.54
2018-11-06T08:59:45.766Z,13.57
2018-11-06T09:00:45.736Z,13.53
2018-11-06T09:01:45.713Z,13.59
2018-11-06T09:02:45.796Z,13.62
2018-11-06T09:03:45.661Z,13.59
2018-11-06T09:04:45.636Z,13.65
2018-11-06T09:05:45.608Z,13.65
2018-11-06T09:06:45.577Z,13.71
2018-11-06T09:07:45.551Z,13.68
2018-11-06T09:08:45.574Z,13.81
2018-11-06T09:09:45.499Z,13.70
2018-11-06T09:10:45.479Z,13.77
2018-11-06T09:11:45.447Z,13.71
2018-11-06T09:12:45.432Z,13.83
2018-11-06T09:13:45.403Z,13.79
2018-11-06T09:14:45.367Z,13.77
2018-11-06T09:15:45.347Z,13.77
2018-11-06T09:16:45.317Z,13.81
2018-11-06T09:17:45.289Z,13.90
2018-11-06T09:18:45.266Z,13.93
2018-11-06T09:19:45.238Z,13.95
2018-11-06T09:20:45.212Z,14.00
2018-11-06T09:21:45.190Z,14.10
2018-11-06T09:22:45.157Z,14.11
2018-11-06T09:23:45.136Z,14.25
2018-11-06T09:24:45.105Z,14.29
2018-11-06T09:25:45.079Z,14.26
2018-11-06T09:26:45.055Z,14.35
2018-11-06T09:27:45.034Z,14.43
2018-11-06T09:28:44.998Z,14.41
2018-11-06T09:29:44.977Z,14.59
2018-11-06T09:30:45.007Z,14.62
2018-11-06T09:31:44.921Z,14.73
2018-11-06T09:32:45.030Z,14.77
2018-11-06T09:33:44.872Z,14.84
2018-11-06T09:34:44.865Z,14.82
2018-11-06T09:35:44.822Z,14.89
2018-11-06T09:36:44.797Z,15.03
2018-11-06T09:37:44.771Z,15.10
2018-11-06T09:38:44.738Z,15.03
2018-11-06T09:39:44.715Z,15.14
2018-11-06T09:40:44.691Z,15.06
2018-11-06T09:41:44.696Z,15.18
2018-11-06T09:42:44.637Z,15.15
2018-11-06T09:43:44.610Z,15.24
2018-11-06T09:44:44.584Z,15.25
2018-11-06T09:45:44.558Z,15.22
2018-11-06T09:46:44.536Z,15.17
2018-11-06T09:47:44.512Z,15.22
2018-11-06T09:48:44.497Z,15.25
2018-11-06T09:49:44.456Z,15.14
2018-11-06T09:50:44.430Z,15.22
2018-11-06T09:51:44.411Z,15.14
2018-11-06T09:52:44.373Z,15.17
2018-11-06T09:53:44.350Z,15.10
2018-11-06T09:54:44.397Z,15.19
2018-11-06T09:55:44.311Z,15.15
2018-11-06T09:56:44.274Z,15.15
2018-11-06T09:57:44.251Z,15.15
2018-11-06T09:58:44.226Z,15.07
2018-11-06T09:59:44.202Z,15.09
2018-11-06T10:00:44.175Z,15.18
2018-11-06T10:01:44.147Z,15.22
2018-11-06T10:02:44.119Z,15.11
2018-11-06T10:03:44.089Z,15.27
2018-11-06T10:04:44.073Z,15.24
2018-11-06T10:05:44.050Z,15.24
2018-11-06T10:06:44.172Z,15.24
2018-11-06T10:07:44.016Z,15.35
2018-11-06T10:08:43.968Z,15.28
2018-11-06T10:09:43.943Z,15.25
2018-11-06T10:10:43.908Z,15.37
2018-11-06T10:11:43.886Z,15.47
2018-11-06T10:12:43.863Z,15.39
2018-11-06T10:13:43.837Z,15.36
2018-11-06T10:14:43.812Z,15.51
2018-11-06T10:15:43.869Z,15.44
2018-11-06T10:16:43.756Z,15.59
2018-11-06T10:17:43.738Z,15.54
2018-11-06T10:18:43.702Z,15.65
2018-11-06T10:19:43.688Z,15.61
2018-11-06T10:20:43.658Z,15.70
2018-11-06T10:21:43.635Z,15.70
2018-11-06T10:22:43.601Z,15.80
2018-11-06T10:23:43.583Z,15.73
2018-11-06T10:24:43.550Z,15.83
2018-11-06T10:25:43.522Z,15.76
2018-11-06T10:26:43.504Z,15.83
2018-11-06T10:27:43.471Z,15.84
2018-11-06T10:28:43.452Z,15.84
2018-11-06T10:29:43.424Z,15.88
2018-11-06T10:30:43.436Z,15.95
2018-11-06T10:31:43.379Z,15.95
2018-11-06T10:32:43.351Z,16.05
2018-11-06T10:33:43.322Z,16.01
2018-11-06T10:34:43.300Z,16.12
2018-11-06T10:35:43.265Z,16.16
2018-11-06T10:36:43.254Z,16.12
2018-11-06T10:37:43.217Z,16.12
2018-11-06T10:38:43.201Z,16.15
2018-11-06T10:39:43.177Z,16.24
2018-11-06T10:40:43.141Z,16.17
2018-11-06T10:41:43.122Z,16.16
2018-11-06T10:42:43.087Z,16.20
2018-11-06T10:43:43.097Z,16.28
2018-11-06T10:44:43.042Z,16.28
2018-11-06T10:45:43.012Z,16.29
2018-11-06T10:46:42.995Z,16.28
2018-11-06T10:47:42.960Z,16.29
2018-11-06T10:48:42.936Z,16.26
2018-11-06T10:49:42.916Z,16.26
2018-11-06T10:50:42.908Z,16.29
2018-11-06T10:51:42.894Z,16.28
2018-11-06T10:52:42.848Z,16.31
2018-11-06T10:53:42.814Z,16.32
2018-11-06T10:54:42.784Z,16.32
2018-11-06T10:55:42.804Z,16.35
2018-11-06T10:56:42.743Z,16.39
2018-11-06T10:57:42.721Z,16.36
2018-11-06T10:58:42.721Z,16.38
2018-11-06T10:59:42.668Z,16.50
2018-11-06T11:00:42.653Z,16.47
2018-11-06T11:01:42.628Z,16.54
2018-11-06T11:02:42.593Z,16.49
2018-11-06T11:03:42.581Z,16.56
2018-11-06T11:04:42.533Z,16.47
2018-11-06T11:05:42.518Z,16.56
2018-11-06T11:06:42.509Z,16.47
2018-11-06T11:07:42.468Z,16.53
2018-11-06T11:08:42.438Z,16.58
2018-11-06T11:09:42.405Z,16.68
2018-11-06T11:10:42.381Z,16.60
2018-11-06T11:11:42.356Z,16.61
2018-11-06T11:12:42.388Z,16.66
2018-11-06T11:13:42.301Z,16.74
2018-11-06T11:14:42.277Z,16.72
2018-11-06T11:15:42.249Z,16.75
2018-11-06T11:16:42.226Z,16.66
2018-11-06T11:17:42.198Z,16.72
2018-11-06T11:18:42.173Z,16.69
2018-11-06T11:19:42.148Z,16.83
2018-11-06T11:20:42.121Z,16.84
2018-11-06T11:21:42.101Z,16.79
2018-11-06T11:22:42.099Z,16.78
2018-11-06T11:23:42.050Z,16.84
2018-11-06T11:24:42.017Z,16.86
2018-11-06T11:25:42.026Z,16.87
2018-11-06T11:26:41.970Z,16.89
2018-11-06T11:27:41.954Z,16.94
2018-11-06T11:28:41.924Z,16.89
2018-11-06T11:29:41.895Z,16.90
2018-11-06T11:30:41.885Z,17.06
2018-11-06T11:31:41.842Z,17.09
2018-11-06T11:32:41.851Z,17.09
2018-11-06T11:33:41.839Z,17.06
2018-11-06T11:34:41.772Z,17.09
2018-11-06T11:35:41.764Z,17.16
2018-11-06T11:36:41.737Z,17.24
2018-11-06T11:37:41.708Z,17.30
2018-11-06T11:38:41.688Z,17.27
2018-11-06T11:39:41.648Z,17.30
2018-11-06T11:40:41.637Z,17.29
2018-11-06T11:41:41.617Z,17.39
2018-11-06T11:42:41.581Z,17.39
2018-11-06T11:43:41.566Z,17.51
2018-11-06T11:44:41.536Z,17.64
2018-11-06T11:45:41.512Z,17.57
2018-11-06T11:46:41.480Z,17.60
2018-11-06T11:47:41.478Z,17.67
2018-11-06T11:48:41.442Z,17.65
2018-11-06T11:49:41.413Z,17.63
2018-11-06T11:50:41.392Z,17.64
2018-11-06T11:51:41.346Z,17.64
2018-11-06T11:52:41.324Z,17.74
2018-11-06T11:53:41.302Z,17.78
2018-11-06T11:54:41.269Z,17.67
2018-11-06T11:55:41.247Z,17.74
2018-11-06T11:56:41.220Z,17.71
2018-11-06T11:57:41.197Z,17.82
2018-11-06T11:58:41.165Z,17.74
2018-11-06T11:59:41.146Z,17.89
2018-11-06T12:00:41.118Z,17.92
2018-11-06T12:01:41.088Z,17.89
2018-11-06T12:02:41.073Z,17.94
2018-11-06T12:03:41.051Z,17.90
2018-11-06T12:04:41.015Z,17.90
2018-11-06T12:05:40.990Z,17.92
2018-11-06T12:06:40.980Z,18.00
2018-11-06T12:07:40.943Z,17.97
2018-11-06T12:08:40.914Z,18.03
2018-11-06T12:09:40.897Z,18.07
2018-11-06T12:10:40.875Z,18.16
2018-11-06T12:11:40.847Z,18.13
2018-11-06T12:12:40.819Z,18.18
2018-11-06T12:13:40.795Z,18.10
2018-11-06T12:14:40.769Z,18.13
2018-11-06T12:15:40.747Z,18.22
2018-11-06T12:16:40.719Z,18.29
2018-11-06T12:17:40.697Z,18.23
2018-11-06T12:18:40.670Z,18.34
2018-11-06T12:19:40.645Z,18.33
2018-11-06T12:20:40.622Z,18.37
2018-11-06T12:21:40.599Z,18.35
2018-11-06T12:22:40.574Z,18.41
2018-11-06T12:23:40.545Z,18.44
2018-11-06T12:24:40.662Z,18.47
2018-11-06T12:25:40.593Z,18.49
2018-11-06T12:26:40.480Z,18.56
2018-11-06T12:27:40.449Z,18.47
2018-11-06T12:28:40.420Z,18.55
2018-11-06T12:29:40.401Z,18.58
2018-11-06T12:30:40.380Z,18.59
2018-11-06T12:31:40.350Z,18.60
2018-11-06T12:32:40.423Z,18.63
2018-11-06T12:33:40.297Z,18.70
2018-11-06T12:34:40.276Z,18.81
2018-11-06T12:35:40.253Z,18.81
2018-11-06T12:36:40.300Z,18.83
2018-11-06T12:37:40.196Z,18.92
2018-11-06T12:38:40.181Z,18.99
2018-11-06T12:39:40.153Z,18.99
2018-11-06T12:40:40.144Z,19.11
2018-11-06T12:41:40.112Z,19.12
2018-11-06T12:42:40.074Z,19.21
2018-11-06T12:43:40.119Z,19.29
2018-11-06T12:44:40.030Z,19.27
2018-11-06T12:45:40.009Z,19.31
2018-11-06T12:46:39.974Z,19.33
2018-11-06T12:47:39.953Z,19.45
2018-11-06T12:48:39.936Z,19.44
2018-11-06T12:49:39.907Z,19.55
2018-11-06T12:50:39.885Z,19.48
2018-11-06T12:51:39.855Z,19.55